sensor_id;sensor_type;location;lat;lon;timestamp;temperature;humidity
64937;SHT30;51452;47.698;19.050;2024-02-28T00:01:52;12.04;68.47
64937;SHT30;51452;47.698;19.050;2024-02-28T00:04:18;12.12;69.74
64937;SHT30;51452;47.698;19.050;2024-02-28T00:06:45;12.08;69.76
64937;SHT30;51452;47.698;19.050;2024-02-28T00:09:13;12.04;69.98
64937;SHT30;51452;47.698;19.050;2024-02-28T00:11:43;12.04;70.37
64937;SHT30;51452;47.698;19.050;2024-02-28T00:14:10;12.04;70.23
64937;SHT30;51452;47.698;19.050;2024-02-28T00:16:45;12.05;70.30
64937;SHT30;51452;47.698;19.050;2024-02-28T00:19:12;12.02;70.07
64937;SHT30;51452;47.698;19.050;2024-02-28T00:21:41;12.05;70.41
64937;SHT30;51452;47.698;19.050;2024-02-28T00:24:07;12.02;70.67
64937;SHT30;51452;47.698;19.050;2024-02-28T00:26:32;12.04;70.36
64937;SHT30;51452;47.698;19.050;2024-02-28T00:28:58;11.98;70.32
64937;SHT30;51452;47.698;19.050;2024-02-28T00:31:26;12.06;69.75
64937;SHT30;51452;47.698;19.050;2024-02-28T00:33:51;12.06;68.64
64937;SHT30;51452;47.698;19.050;2024-02-28T00:36:17;12.01;69.56
64937;SHT30;51452;47.698;19.050;2024-02-28T00:38:43;12.08;69.42
64937;SHT30;51452;47.698;19.050;2024-02-28T00:41:09;12.09;68.84
64937;SHT30;51452;47.698;19.050;2024-02-28T00:43:34;12.15;69.29
64937;SHT30;51452;47.698;19.050;2024-02-28T00:46:00;12.09;68.88
64937;SHT30;51452;47.698;19.050;2024-02-28T00:48:25;12.18;68.65
64937;SHT30;51452;47.698;19.050;2024-02-28T00:50:52;12.14;67.82
64937;SHT30;51452;47.698;19.050;2024-02-28T00:53:18;12.14;68.62
64937;SHT30;51452;47.698;19.050;2024-02-28T00:55:43;12.12;68.62
64937;SHT30;51452;47.698;19.050;2024-02-28T00:58:09;12.19;68.39
64937;SHT30;51452;47.698;19.050;2024-02-28T01:00:34;12.12;68.65
64937;SHT30;51452;47.698;19.050;2024-02-28T01:03:00;12.18;68.69
64937;SHT30;51452;47.698;19.050;2024-02-28T01:05:29;12.21;68.91
64937;SHT30;51452;47.698;19.050;2024-02-28T01:07:54;12.15;69.26
64937;SHT30;51452;47.698;19.050;2024-02-28T01:10:19;12.12;69.66
64937;SHT30;51452;47.698;19.050;2024-02-28T01:12:45;12.14;68.83
64937;SHT30;51452;47.698;19.050;2024-02-28T01:15:10;12.09;68.73
64937;SHT30;51452;47.698;19.050;2024-02-28T01:17:36;12.16;68.54
64937;SHT30;51452;47.698;19.050;2024-02-28T01:20:01;12.15;68.54
64937;SHT30;51452;47.698;19.050;2024-02-28T01:22:26;12.25;69.12
64937;SHT30;51452;47.698;19.050;2024-02-28T01:24:52;12.21;69.97
64937;SHT30;51452;47.698;19.050;2024-02-28T01:27:17;12.12;70.18
64937;SHT30;51452;47.698;19.050;2024-02-28T01:29:42;12.16;70.40
64937;SHT30;51452;47.698;19.050;2024-02-28T01:32:08;12.04;70.95
64937;SHT30;51452;47.698;19.050;2024-02-28T01:34:33;12.09;70.67
64937;SHT30;51452;47.698;19.050;2024-02-28T01:36:58;12.06;70.42
64937;SHT30;51452;47.698;19.050;2024-02-28T01:39:24;12.02;70.80
64937;SHT30;51452;47.698;19.050;2024-02-28T01:41:53;12.02;70.79
64937;SHT30;51452;47.698;19.050;2024-02-28T01:44:19;12.05;69.91
64937;SHT30;51452;47.698;19.050;2024-02-28T01:46:45;11.96;70.14
64937;SHT30;51452;47.698;19.050;2024-02-28T01:49:11;12.01;68.86
64937;SHT30;51452;47.698;19.050;2024-02-28T01:51:36;12.06;69.12
64937;SHT30;51452;47.698;19.050;2024-02-28T01:54:02;11.99;69.32
64937;SHT30;51452;47.698;19.050;2024-02-28T01:56:28;12.09;70.15
64937;SHT30;51452;47.698;19.050;2024-02-28T01:58:55;12.11;70.32
64937;SHT30;51452;47.698;19.050;2024-02-28T02:01:21;11.94;70.14
64937;SHT30;51452;47.698;19.050;2024-02-28T02:03:47;11.98;69.90
64937;SHT30;51452;47.698;19.050;2024-02-28T02:06:12;11.94;69.67
64937;SHT30;51452;47.698;19.050;2024-02-28T02:08:38;11.95;68.97
64937;SHT30;51452;47.698;19.050;2024-02-28T02:11:04;11.89;69.40
64937;SHT30;51452;47.698;19.050;2024-02-28T02:13:31;11.85;69.53
64937;SHT30;51452;47.698;19.050;2024-02-28T02:15:56;11.84;69.67
64937;SHT30;51452;47.698;19.050;2024-02-28T02:18:21;11.84;69.29
64937;SHT30;51452;47.698;19.050;2024-02-28T02:20:50;11.82;69.59
64937;SHT30;51452;47.698;19.050;2024-02-28T02:23:15;11.67;70.05
64937;SHT30;51452;47.698;19.050;2024-02-28T02:25:47;11.68;70.04
64937;SHT30;51452;47.698;19.050;2024-02-28T02:28:13;11.63;70.22
64937;SHT30;51452;47.698;19.050;2024-02-28T02:30:39;11.54;70.47
64937;SHT30;51452;47.698;19.050;2024-02-28T02:33:05;11.47;70.61
64937;SHT30;51452;47.698;19.050;2024-02-28T02:35:32;11.45;70.61
64937;SHT30;51452;47.698;19.050;2024-02-28T02:37:57;11.47;70.56
64937;SHT30;51452;47.698;19.050;2024-02-28T02:40:23;11.34;70.97
64937;SHT30;51452;47.698;19.050;2024-02-28T02:42:48;11.43;70.38
64937;SHT30;51452;47.698;19.050;2024-02-28T02:45:13;11.41;70.67
64937;SHT30;51452;47.698;19.050;2024-02-28T02:47:39;11.45;70.23
64937;SHT30;51452;47.698;19.050;2024-02-28T02:50:05;11.51;70.60
64937;SHT30;51452;47.698;19.050;2024-02-28T02:52:32;11.48;70.56
64937;SHT30;51452;47.698;19.050;2024-02-28T02:54:57;11.45;70.19
64937;SHT30;51452;47.698;19.050;2024-02-28T02:57:22;11.41;70.58
64937;SHT30;51452;47.698;19.050;2024-02-28T02:59:48;11.45;69.88
64937;SHT30;51452;47.698;19.050;2024-02-28T03:02:13;11.57;69.78
64937;SHT30;51452;47.698;19.050;2024-02-28T03:04:38;11.48;69.98
64937;SHT30;51452;47.698;19.050;2024-02-28T03:07:04;11.50;69.53
64937;SHT30;51452;47.698;19.050;2024-02-28T03:09:29;11.50;69.63
64937;SHT30;51452;47.698;19.050;2024-02-28T03:11:55;11.45;70.21
64937;SHT30;51452;47.698;19.050;2024-02-28T03:14:20;11.54;69.97
64937;SHT30;51452;47.698;19.050;2024-02-28T03:16:47;11.60;69.92
64937;SHT30;51452;47.698;19.050;2024-02-28T03:19:14;11.47;70.01
64937;SHT30;51452;47.698;19.050;2024-02-28T03:21:40;11.50;70.40
64937;SHT30;51452;47.698;19.050;2024-02-28T03:24:07;11.55;70.44
64937;SHT30;51452;47.698;19.050;2024-02-28T03:26:32;11.51;70.77
64937;SHT30;51452;47.698;19.050;2024-02-28T03:28:58;11.50;70.84
64937;SHT30;51452;47.698;19.050;2024-02-28T03:31:24;11.48;70.98
64937;SHT30;51452;47.698;19.050;2024-02-28T03:33:49;11.51;70.80
64937;SHT30;51452;47.698;19.050;2024-02-28T03:36:15;11.44;70.76
64937;SHT30;51452;47.698;19.050;2024-02-28T03:38:40;11.48;71.11
64937;SHT30;51452;47.698;19.050;2024-02-28T03:41:06;11.53;71.01
64937;SHT30;51452;47.698;19.050;2024-02-28T03:43:31;11.55;71.05
64937;SHT30;51452;47.698;19.050;2024-02-28T03:45:56;11.58;71.15
64937;SHT30;51452;47.698;19.050;2024-02-28T03:48:22;11.57;70.78
64937;SHT30;51452;47.698;19.050;2024-02-28T03:50:47;11.58;71.21
64937;SHT30;51452;47.698;19.050;2024-02-28T03:53:13;11.54;71.19
64937;SHT30;51452;47.698;19.050;2024-02-28T03:55:38;11.58;71.35
64937;SHT30;51452;47.698;19.050;2024-02-28T03:58:04;11.51;71.57
64937;SHT30;51452;47.698;19.050;2024-02-28T04:00:32;11.53;71.67
64937;SHT30;51452;47.698;19.050;2024-02-28T04:02:57;11.55;71.76
64937;SHT30;51452;47.698;19.050;2024-02-28T04:05:22;11.51;71.56
64937;SHT30;51452;47.698;19.050;2024-02-28T04:07:48;11.53;71.24
64937;SHT30;51452;47.698;19.050;2024-02-28T04:10:13;11.44;71.17
64937;SHT30;51452;47.698;19.050;2024-02-28T04:12:44;11.51;71.11
64937;SHT30;51452;47.698;19.050;2024-02-28T04:15:11;11.54;71.36
64937;SHT30;51452;47.698;19.050;2024-02-28T04:17:37;11.51;71.42
64937;SHT30;51452;47.698;19.050;2024-02-28T04:20:03;11.55;71.64
64937;SHT30;51452;47.698;19.050;2024-02-28T04:22:30;11.44;71.86
64937;SHT30;51452;47.698;19.050;2024-02-28T04:24:57;11.30;71.41
64937;SHT30;51452;47.698;19.050;2024-02-28T04:27:22;11.28;71.29
64937;SHT30;51452;47.698;19.050;2024-02-28T04:29:48;11.27;71.24
64937;SHT30;51452;47.698;19.050;2024-02-28T04:32:13;11.35;71.53
64937;SHT30;51452;47.698;19.050;2024-02-28T04:34:39;11.44;71.56
64937;SHT30;51452;47.698;19.050;2024-02-28T04:37:04;11.40;70.80
64937;SHT30;51452;47.698;19.050;2024-02-28T04:39:29;11.47;69.66
64937;SHT30;51452;47.698;19.050;2024-02-28T04:41:55;11.44;70.38
64937;SHT30;51452;47.698;19.050;2024-02-28T04:44:20;11.48;70.33
64937;SHT30;51452;47.698;19.050;2024-02-28T04:46:46;11.53;70.53
64937;SHT30;51452;47.698;19.050;2024-02-28T04:49:11;11.53;70.42
64937;SHT30;51452;47.698;19.050;2024-02-28T04:51:36;11.54;70.17
64937;SHT30;51452;47.698;19.050;2024-02-28T04:54:02;11.55;70.14
64937;SHT30;51452;47.698;19.050;2024-02-28T04:56:27;11.55;70.40
64937;SHT30;51452;47.698;19.050;2024-02-28T04:58:53;11.50;71.42
64937;SHT30;51452;47.698;19.050;2024-02-28T05:01:18;11.54;71.04
64937;SHT30;51452;47.698;19.050;2024-02-28T05:03:43;11.48;71.71
64937;SHT30;51452;47.698;19.050;2024-02-28T05:06:09;11.41;71.83
64937;SHT30;51452;47.698;19.050;2024-02-28T05:08:37;11.40;72.10
64937;SHT30;51452;47.698;19.050;2024-02-28T05:11:03;11.38;72.01
64937;SHT30;51452;47.698;19.050;2024-02-28T05:13:28;11.35;71.46
64937;SHT30;51452;47.698;19.050;2024-02-28T05:15:53;11.30;71.35
64937;SHT30;51452;47.698;19.050;2024-02-28T05:18:19;11.19;71.05
64937;SHT30;51452;47.698;19.050;2024-02-28T05:20:44;11.22;71.41
64937;SHT30;51452;47.698;19.050;2024-02-28T05:23:10;11.22;71.07
64937;SHT30;51452;47.698;19.050;2024-02-28T05:25:35;11.30;71.19
64937;SHT30;51452;47.698;19.050;2024-02-28T05:28:01;11.30;72.09
64937;SHT30;51452;47.698;19.050;2024-02-28T05:30:26;11.37;72.27
64937;SHT30;51452;47.698;19.050;2024-02-28T05:32:51;11.33;72.31
64937;SHT30;51452;47.698;19.050;2024-02-28T05:35:17;11.37;72.07
64937;SHT30;51452;47.698;19.050;2024-02-28T05:37:44;11.31;72.01
64937;SHT30;51452;47.698;19.050;2024-02-28T05:40:09;11.33;71.76
64937;SHT30;51452;47.698;19.050;2024-02-28T05:42:38;11.34;72.16
64937;SHT30;51452;47.698;19.050;2024-02-28T05:45:03;11.34;72.14
64937;SHT30;51452;47.698;19.050;2024-02-28T05:47:29;11.35;72.05
64937;SHT30;51452;47.698;19.050;2024-02-28T05:49:55;11.37;71.85
64937;SHT30;51452;47.698;19.050;2024-02-28T05:52:22;11.35;72.03
64937;SHT30;51452;47.698;19.050;2024-02-28T05:54:47;11.34;72.08
64937;SHT30;51452;47.698;19.050;2024-02-28T05:57:16;11.23;72.36
64937;SHT30;51452;47.698;19.050;2024-02-28T05:59:42;11.30;72.20
64937;SHT30;51452;47.698;19.050;2024-02-28T06:02:08;11.27;71.93
64937;SHT30;51452;47.698;19.050;2024-02-28T06:04:33;11.23;72.16
64937;SHT30;51452;47.698;19.050;2024-02-28T06:06:59;11.30;72.02
64937;SHT30;51452;47.698;19.050;2024-02-28T06:09:25;11.22;71.36
64937;SHT30;51452;47.698;19.050;2024-02-28T06:11:51;11.23;71.96
64937;SHT30;51452;47.698;19.050;2024-02-28T06:14:16;11.10;69.53
64937;SHT30;51452;47.698;19.050;2024-02-28T06:16:41;11.06;69.50
64937;SHT30;51452;47.698;19.050;2024-02-28T06:19:07;11.03;68.55
64937;SHT30;51452;47.698;19.050;2024-02-28T06:21:32;10.86;68.47
64937;SHT30;51452;47.698;19.050;2024-02-28T06:23:57;10.83;67.99
64937;SHT30;51452;47.698;19.050;2024-02-28T06:26:23;10.85;69.02
64937;SHT30;51452;47.698;19.050;2024-02-28T06:28:51;10.89;69.37
64937;SHT30;51452;47.698;19.050;2024-02-28T06:31:18;10.91;68.74
64937;SHT30;51452;47.698;19.050;2024-02-28T06:33:44;10.92;67.43
64937;SHT30;51452;47.698;19.050;2024-02-28T06:36:10;10.88;68.05
64937;SHT30;51452;47.698;19.050;2024-02-28T06:38:36;10.96;67.89
64937;SHT30;51452;47.698;19.050;2024-02-28T06:41:04;10.99;67.82
64937;SHT30;51452;47.698;19.050;2024-02-28T06:43:36;10.99;68.11
64937;SHT30;51452;47.698;19.050;2024-02-28T06:46:02;11.09;67.70
64937;SHT30;51452;47.698;19.050;2024-02-28T06:48:28;11.13;68.61
64937;SHT30;51452;47.698;19.050;2024-02-28T06:50:54;11.07;67.64
64937;SHT30;51452;47.698;19.050;2024-02-28T06:53:20;11.16;66.41
64937;SHT30;51452;47.698;19.050;2024-02-28T06:55:45;11.12;67.09
64937;SHT30;51452;47.698;19.050;2024-02-28T06:58:13;11.19;66.99
64937;SHT30;51452;47.698;19.050;2024-02-28T07:00:38;11.23;66.96
64937;SHT30;51452;47.698;19.050;2024-02-28T07:03:04;11.26;66.97
64937;SHT30;51452;47.698;19.050;2024-02-28T07:05:29;11.13;66.61
64937;SHT30;51452;47.698;19.050;2024-02-28T07:07:55;11.22;66.79
64937;SHT30;51452;47.698;19.050;2024-02-28T07:10:20;11.24;66.38
64937;SHT30;51452;47.698;19.050;2024-02-28T07:12:45;11.38;66.75
64937;SHT30;51452;47.698;19.050;2024-02-28T07:15:11;11.24;66.47
64937;SHT30;51452;47.698;19.050;2024-02-28T07:17:36;11.35;66.36
64937;SHT30;51452;47.698;19.050;2024-02-28T07:20:02;11.37;66.16
64937;SHT30;51452;47.698;19.050;2024-02-28T07:22:27;11.50;65.83
64937;SHT30;51452;47.698;19.050;2024-02-28T07:24:52;11.50;65.65
64937;SHT30;51452;47.698;19.050;2024-02-28T07:27:18;11.51;65.69
64937;SHT30;51452;47.698;19.050;2024-02-28T07:29:43;11.65;65.62
64937;SHT30;51452;47.698;19.050;2024-02-28T07:32:09;11.75;65.75
64937;SHT30;51452;47.698;19.050;2024-02-28T07:34:35;11.94;64.89
64937;SHT30;51452;47.698;19.050;2024-02-28T07:37:00;12.01;64.82
64937;SHT30;51452;47.698;19.050;2024-02-28T07:39:26;12.05;64.27
64937;SHT30;51452;47.698;19.050;2024-02-28T07:41:52;12.11;64.67
64937;SHT30;51452;47.698;19.050;2024-02-28T07:44:17;12.15;64.12
64937;SHT30;51452;47.698;19.050;2024-02-28T07:46:43;12.22;64.87
64937;SHT30;51452;47.698;19.050;2024-02-28T07:49:09;12.30;63.69
64937;SHT30;51452;47.698;19.050;2024-02-28T07:51:36;12.28;63.63
64937;SHT30;51452;47.698;19.050;2024-02-28T07:54:01;12.32;63.07
64937;SHT30;51452;47.698;19.050;2024-02-28T07:56:27;12.39;63.11
64937;SHT30;51452;47.698;19.050;2024-02-28T07:58:52;12.47;63.88
64937;SHT30;51452;47.698;19.050;2024-02-28T08:01:17;12.47;64.59
64937;SHT30;51452;47.698;19.050;2024-02-28T08:03:43;12.54;64.36
64937;SHT30;51452;47.698;19.050;2024-02-28T08:06:09;12.59;64.99
64937;SHT30;51452;47.698;19.050;2024-02-28T08:08:35;12.47;63.15
64937;SHT30;51452;47.698;19.050;2024-02-28T08:11:01;12.61;62.69
64937;SHT30;51452;47.698;19.050;2024-02-28T08:13:29;12.66;62.04
64937;SHT30;51452;47.698;19.050;2024-02-28T08:15:55;12.64;62.99
64937;SHT30;51452;47.698;19.050;2024-02-28T08:18:21;12.67;62.73
64937;SHT30;51452;47.698;19.050;2024-02-28T08:20:46;12.76;62.15
64937;SHT30;51452;47.698;19.050;2024-02-28T08:23:11;12.76;61.81
64937;SHT30;51452;47.698;19.050;2024-02-28T08:25:37;12.63;62.70
64937;SHT30;51452;47.698;19.050;2024-02-28T08:28:03;12.77;62.41
64937;SHT30;51452;47.698;19.050;2024-02-28T08:30:29;12.67;63.02
64937;SHT30;51452;47.698;19.050;2024-02-28T08:32:54;12.79;62.27
64937;SHT30;51452;47.698;19.050;2024-02-28T08:35:20;12.79;62.30
64937;SHT30;51452;47.698;19.050;2024-02-28T08:37:45;12.87;63.33
64937;SHT30;51452;47.698;19.050;2024-02-28T08:40:11;12.91;62.22
64937;SHT30;51452;47.698;19.050;2024-02-28T08:42:38;12.85;62.70
64937;SHT30;51452;47.698;19.050;2024-02-28T08:45:03;12.79;62.13
64937;SHT30;51452;47.698;19.050;2024-02-28T08:47:31;12.85;63.11
64937;SHT30;51452;47.698;19.050;2024-02-28T08:49:56;12.88;63.83
64937;SHT30;51452;47.698;19.050;2024-02-28T08:52:22;12.95;63.13
64937;SHT30;51452;47.698;19.050;2024-02-28T08:54:47;12.95;61.49
64937;SHT30;51452;47.698;19.050;2024-02-28T08:57:14;12.85;61.83
64937;SHT30;51452;47.698;19.050;2024-02-28T08:59:39;12.90;62.42
64937;SHT30;51452;47.698;19.050;2024-02-28T09:02:08;12.94;62.76
64937;SHT30;51452;47.698;19.050;2024-02-28T09:04:36;12.95;62.34
64937;SHT30;51452;47.698;19.050;2024-02-28T09:07:01;13.00;63.35
64937;SHT30;51452;47.698;19.050;2024-02-28T09:09:26;12.97;62.39
64937;SHT30;51452;47.698;19.050;2024-02-28T09:11:53;12.90;63.43
64937;SHT30;51452;47.698;19.050;2024-02-28T09:14:19;12.95;62.34
64937;SHT30;51452;47.698;19.050;2024-02-28T09:16:45;12.85;62.38
64937;SHT30;51452;47.698;19.050;2024-02-28T09:19:10;12.61;63.86
64937;SHT30;51452;47.698;19.050;2024-02-28T09:21:35;12.74;63.05
64937;SHT30;51452;47.698;19.050;2024-02-28T09:24:01;12.83;63.55
64937;SHT30;51452;47.698;19.050;2024-02-28T09:26:26;12.87;63.52
64937;SHT30;51452;47.698;19.050;2024-02-28T09:28:52;12.66;63.70
64937;SHT30;51452;47.698;19.050;2024-02-28T09:31:17;12.80;63.74
64937;SHT30;51452;47.698;19.050;2024-02-28T09:33:43;12.88;64.26
64937;SHT30;51452;47.698;19.050;2024-02-28T09:36:10;12.93;63.73
64937;SHT30;51452;47.698;19.050;2024-02-28T09:38:36;12.70;63.32
64937;SHT30;51452;47.698;19.050;2024-02-28T09:41:02;13.03;62.41
64937;SHT30;51452;47.698;19.050;2024-02-28T09:43:31;13.16;62.84
64937;SHT30;51452;47.698;19.050;2024-02-28T09:46:03;13.31;61.31
64937;SHT30;51452;47.698;19.050;2024-02-28T09:48:30;13.16;62.29
64937;SHT30;51452;47.698;19.050;2024-02-28T09:50:56;13.12;62.11
64937;SHT30;51452;47.698;19.050;2024-02-28T09:53:22;13.34;61.67
64937;SHT30;51452;47.698;19.050;2024-02-28T09:55:49;13.29;61.65
64937;SHT30;51452;47.698;19.050;2024-02-28T09:58:15;13.38;61.45
64937;SHT30;51452;47.698;19.050;2024-02-28T10:00:43;13.38;61.29
64937;SHT30;51452;47.698;19.050;2024-02-28T10:03:12;13.32;61.34
64937;SHT30;51452;47.698;19.050;2024-02-28T10:05:38;13.34;61.91
64937;SHT30;51452;47.698;19.050;2024-02-28T10:08:05;13.32;62.34
64937;SHT30;51452;47.698;19.050;2024-02-28T10:10:30;13.59;62.23
64937;SHT30;51452;47.698;19.050;2024-02-28T10:12:56;13.65;61.33
64937;SHT30;51452;47.698;19.050;2024-02-28T10:15:22;13.66;61.48
64937;SHT30;51452;47.698;19.050;2024-02-28T10:17:47;13.62;61.25
64937;SHT30;51452;47.698;19.050;2024-02-28T10:20:14;13.59;61.26
64937;SHT30;51452;47.698;19.050;2024-02-28T10:22:39;13.70;61.91
64937;SHT30;51452;47.698;19.050;2024-02-28T10:25:05;13.89;61.26
64937;SHT30;51452;47.698;19.050;2024-02-28T10:27:34;13.94;61.54
64937;SHT30;51452;47.698;19.050;2024-02-28T10:30:00;13.85;60.41
64937;SHT30;51452;47.698;19.050;2024-02-28T10:32:36;13.82;60.68
64937;SHT30;51452;47.698;19.050;2024-02-28T10:35:02;13.63;61.02
64937;SHT30;51452;47.698;19.050;2024-02-28T10:37:29;13.73;61.43
64937;SHT30;51452;47.698;19.050;2024-02-28T10:39:58;13.77;61.77
64937;SHT30;51452;47.698;19.050;2024-02-28T10:42:29;13.83;61.42
64937;SHT30;51452;47.698;19.050;2024-02-28T10:44:55;13.96;61.00
64937;SHT30;51452;47.698;19.050;2024-02-28T10:47:24;13.89;60.65
64937;SHT30;51452;47.698;19.050;2024-02-28T10:49:51;14.10;60.90
64937;SHT30;51452;47.698;19.050;2024-02-28T10:52:19;14.21;60.79
64937;SHT30;51452;47.698;19.050;2024-02-28T10:54:54;14.21;60.26
64937;SHT30;51452;47.698;19.050;2024-02-28T10:57:21;14.34;60.45
64937;SHT30;51452;47.698;19.050;2024-02-28T10:59:49;14.51;60.15
64937;SHT30;51452;47.698;19.050;2024-02-28T11:02:15;14.52;59.75
64937;SHT30;51452;47.698;19.050;2024-02-28T11:04:41;14.47;60.38
64937;SHT30;51452;47.698;19.050;2024-02-28T11:07:06;14.67;60.50
64937;SHT30;51452;47.698;19.050;2024-02-28T11:09:34;14.61;59.77
64937;SHT30;51452;47.698;19.050;2024-02-28T11:11:59;14.49;59.96
64937;SHT30;51452;47.698;19.050;2024-02-28T11:14:25;14.49;60.52
64937;SHT30;51452;47.698;19.050;2024-02-28T11:17:01;14.45;60.76
64937;SHT30;51452;47.698;19.050;2024-02-28T11:19:28;14.54;61.04
64937;SHT30;51452;47.698;19.050;2024-02-28T11:21:54;14.44;59.86
64937;SHT30;51452;47.698;19.050;2024-02-28T11:24:23;14.52;59.86
64937;SHT30;51452;47.698;19.050;2024-02-28T11:26:51;14.47;60.26
64937;SHT30;51452;47.698;19.050;2024-02-28T11:29:22;14.37;60.56
64937;SHT30;51452;47.698;19.050;2024-02-28T11:31:48;14.51;61.60
64937;SHT30;51452;47.698;19.050;2024-02-28T11:34:13;14.51;60.78
64937;SHT30;51452;47.698;19.050;2024-02-28T11:36:40;14.71;60.60
64937;SHT30;51452;47.698;19.050;2024-02-28T11:39:06;14.71;61.60
64937;SHT30;51452;47.698;19.050;2024-02-28T11:41:31;14.72;59.71
64937;SHT30;51452;47.698;19.050;2024-02-28T11:43:57;14.75;60.83
64937;SHT30;51452;47.698;19.050;2024-02-28T11:46:23;14.79;60.44
64937;SHT30;51452;47.698;19.050;2024-02-28T11:48:49;14.68;60.13
64937;SHT30;51452;47.698;19.050;2024-02-28T11:51:14;14.78;59.97
64937;SHT30;51452;47.698;19.050;2024-02-28T11:53:40;14.76;60.21
64937;SHT30;51452;47.698;19.050;2024-02-28T11:56:06;14.79;60.49
64937;SHT30;51452;47.698;19.050;2024-02-28T11:58:33;14.91;59.78
64937;SHT30;51452;47.698;19.050;2024-02-28T12:00:58;14.95;60.04
64937;SHT30;51452;47.698;19.050;2024-02-28T12:03:24;14.93;59.67
64937;SHT30;51452;47.698;19.050;2024-02-28T12:05:51;14.99;59.75
64937;SHT30;51452;47.698;19.050;2024-02-28T12:08:17;14.93;59.82
64937;SHT30;51452;47.698;19.050;2024-02-28T12:10:47;15.00;59.41
64937;SHT30;51452;47.698;19.050;2024-02-28T12:13:17;15.00;59.57
64937;SHT30;51452;47.698;19.050;2024-02-28T12:15:43;15.09;60.72
64937;SHT30;51452;47.698;19.050;2024-02-28T12:18:09;15.07;60.19
64937;SHT30;51452;47.698;19.050;2024-02-28T12:20:35;15.15;59.92
64937;SHT30;51452;47.698;19.050;2024-02-28T12:23:02;15.09;60.22
64937;SHT30;51452;47.698;19.050;2024-02-28T12:25:28;15.12;59.33
64937;SHT30;51452;47.698;19.050;2024-02-28T12:27:54;15.20;59.75
64937;SHT30;51452;47.698;19.050;2024-02-28T12:30:19;15.19;59.80
64937;SHT30;51452;47.698;19.050;2024-02-28T12:32:45;15.13;59.74
64937;SHT30;51452;47.698;19.050;2024-02-28T12:35:11;15.23;60.17
64937;SHT30;51452;47.698;19.050;2024-02-28T12:37:36;15.23;59.42
64937;SHT30;51452;47.698;19.050;2024-02-28T12:40:02;15.23;59.48
64937;SHT30;51452;47.698;19.050;2024-02-28T12:42:30;15.29;59.49
64937;SHT30;51452;47.698;19.050;2024-02-28T12:44:58;15.26;59.84
64937;SHT30;51452;47.698;19.050;2024-02-28T12:47:24;15.26;59.36
64937;SHT30;51452;47.698;19.050;2024-02-28T12:49:49;15.18;59.88
64937;SHT30;51452;47.698;19.050;2024-02-28T12:52:14;15.23;60.16
64937;SHT30;51452;47.698;19.050;2024-02-28T12:54:40;15.10;60.11
64937;SHT30;51452;47.698;19.050;2024-02-28T12:57:05;15.12;59.57
64937;SHT30;51452;47.698;19.050;2024-02-28T12:59:31;14.91;60.30
64937;SHT30;51452;47.698;19.050;2024-02-28T13:01:58;14.96;60.09
64937;SHT30;51452;47.698;19.050;2024-02-28T13:04:23;14.92;60.97
64937;SHT30;51452;47.698;19.050;2024-02-28T13:06:50;14.93;60.13
64937;SHT30;51452;47.698;19.050;2024-02-28T13:09:16;15.06;60.17
64937;SHT30;51452;47.698;19.050;2024-02-28T13:11:42;15.16;60.07
64937;SHT30;51452;47.698;19.050;2024-02-28T13:14:08;15.26;60.00
64937;SHT30;51452;47.698;19.050;2024-02-28T13:16:34;15.30;59.78
64937;SHT30;51452;47.698;19.050;2024-02-28T13:18:59;15.23;60.64
64937;SHT30;51452;47.698;19.050;2024-02-28T13:21:25;15.26;59.98
64937;SHT30;51452;47.698;19.050;2024-02-28T13:23:50;15.36;59.32
64937;SHT30;51452;47.698;19.050;2024-02-28T13:26:15;15.39;60.38
64937;SHT30;51452;47.698;19.050;2024-02-28T13:28:46;15.36;60.04
64937;SHT30;51452;47.698;19.050;2024-02-28T13:31:11;15.36;59.28
64937;SHT30;51452;47.698;19.050;2024-02-28T13:33:38;15.46;59.51
64937;SHT30;51452;47.698;19.050;2024-02-28T13:36:03;15.39;58.82
64937;SHT30;51452;47.698;19.050;2024-02-28T13:38:29;15.49;59.18
64937;SHT30;51452;47.698;19.050;2024-02-28T13:40:55;15.50;59.57
64937;SHT30;51452;47.698;19.050;2024-02-28T13:43:21;15.46;58.88
64937;SHT30;51452;47.698;19.050;2024-02-28T13:45:48;15.57;58.93
64937;SHT30;51452;47.698;19.050;2024-02-28T13:48:18;15.56;59.91
64937;SHT30;51452;47.698;19.050;2024-02-28T13:50:46;15.57;59.46
64937;SHT30;51452;47.698;19.050;2024-02-28T13:53:12;15.64;59.25
64937;SHT30;51452;47.698;19.050;2024-02-28T13:55:38;15.51;59.38
64937;SHT30;51452;47.698;19.050;2024-02-28T13:58:04;15.61;59.10
64937;SHT30;51452;47.698;19.050;2024-02-28T14:00:30;15.63;58.64
64937;SHT30;51452;47.698;19.050;2024-02-28T14:02:55;15.61;58.12
64937;SHT30;51452;47.698;19.050;2024-02-28T14:05:21;15.53;59.84
64937;SHT30;51452;47.698;19.050;2024-02-28T14:07:46;15.51;60.05
64937;SHT30;51452;47.698;19.050;2024-02-28T14:10:11;15.49;60.18
64937;SHT30;51452;47.698;19.050;2024-02-28T14:12:37;15.42;60.64
64937;SHT30;51452;47.698;19.050;2024-02-28T14:15:04;15.40;61.10
64937;SHT30;51452;47.698;19.050;2024-02-28T14:17:30;15.42;60.69
64937;SHT30;51452;47.698;19.050;2024-02-28T14:19:56;15.44;60.70
64937;SHT30;51452;47.698;19.050;2024-02-28T14:22:21;15.53;61.09
64937;SHT30;51452;47.698;19.050;2024-02-28T14:24:46;15.46;61.38
64937;SHT30;51452;47.698;19.050;2024-02-28T14:27:12;15.49;61.30
64937;SHT30;51452;47.698;19.050;2024-02-28T14:29:38;15.53;61.37
64937;SHT30;51452;47.698;19.050;2024-02-28T14:32:04;15.54;61.52
64937;SHT30;51452;47.698;19.050;2024-02-28T14:34:32;15.63;61.41
64937;SHT30;51452;47.698;19.050;2024-02-28T14:36:57;15.51;61.44
64937;SHT30;51452;47.698;19.050;2024-02-28T14:39:23;15.57;61.65
64937;SHT30;51452;47.698;19.050;2024-02-28T14:41:49;15.53;61.61
64937;SHT30;51452;47.698;19.050;2024-02-28T14:44:14;15.61;61.28
64937;SHT30;51452;47.698;19.050;2024-02-28T14:46:44;15.43;61.43
64937;SHT30;51452;47.698;19.050;2024-02-28T14:49:10;15.50;61.68
64937;SHT30;51452;47.698;19.050;2024-02-28T14:51:35;15.40;61.84
64937;SHT30;51452;47.698;19.050;2024-02-28T14:54:01;15.50;61.65
64937;SHT30;51452;47.698;19.050;2024-02-28T14:56:26;15.47;61.54
64937;SHT30;51452;47.698;19.050;2024-02-28T14:58:58;15.54;61.67
64937;SHT30;51452;47.698;19.050;2024-02-28T15:01:23;15.49;61.72
64937;SHT30;51452;47.698;19.050;2024-02-28T15:03:50;15.36;61.57
64937;SHT30;51452;47.698;19.050;2024-02-28T15:06:16;15.40;61.92
64937;SHT30;51452;47.698;19.050;2024-02-28T15:08:41;15.39;62.21